Buxhansa — A8TQ5 — position and weather

sailwx.info

Track history (hours):
 
Tides and Currents Weather Stations Pressure Air Temp Water Temp Dewpoint Dewpoint Depression Visibility Wind Speed Wind Dir Waves Ship Positions

Buxhansa

Last reported at 2017-Jan-01 16:28 UTC. Time now 2017-Jan-17 21:23 UTC.
Position N 01°53' E 102°27'.
Warning: this ship's position is 16 days out of date.

Length 208 m; draft 11.1 m.

Type: Ship. MMSI: 636091849.

Date/timePositionNaut miles runAvg speedWind from/ knotsBaromVisibWave heightAir tempDewpointWater temp
2017-Jan-01 16:28N 01°53' E 102°27'8414.1
2017-Jan-01 10:30N 01°14' E 103°41'5 4.9
2017-Jan-01 09:31N 01°17' E 103°45'0 0.0
2017-Jan-01 05:20N 01°17' E 103°45'0 0.0
2017-Jan-01 04:19N 01°17' E 103°45'0 0.0
2017-Jan-01 00:30N 01°17' E 103°45'0 0.0
2016-Dec-31 23:26N 01°17' E 103°45'0 0.0
2016-Dec-31 22:29N 01°17' E 103°45'0 0.0
2016-Dec-31 17:21N 01°17' E 103°45'0 0.0
2016-Dec-31 16:26N 01°17' E 103°45'0 0.0
2016-Dec-31 15:32N 01°17' E 103°45'0 0.0
2016-Dec-31 14:31N 01°17' E 103°45'2 1.5
2016-Dec-31 13:33N 01°15' E 103°46'8 7.7
2016-Dec-31 12:32N 01°14' E 103°54'  
2016-Dec-24 15:32N 29°24' E 122°30'1514.9
2016-Dec-24 14:31N 29°39' E 122°25'1212.1
2016-Dec-24 13:33N 29°47' E 122°16'1211.5
2016-Dec-24 12:32N 29°55' E 122°06'3 1.6
2016-Dec-24 10:31N 29°53' E 122°03'0 0.0
2016-Dec-24 09:10N 29°53' E 122°03'0 0.0
2016-Dec-24 08:33N 29°53' E 122°03'0 0.0
2016-Dec-24 07:09N 29°53' E 122°03'0 0.0
2016-Dec-24 06:30N 29°53' E 122°03'0 0.0
2016-Dec-24 05:26N 29°53' E 122°03'0 0.0
2016-Dec-24 04:13N 29°53' E 122°03'0 0.0
2016-Dec-24 03:27N 29°53' E 122°03'0 0.0
2016-Dec-24 02:29N 29°53' E 122°03'0 0.0
2016-Dec-24 01:19N 29°53' E 122°03'0 0.0
2016-Dec-24 00:12N 29°53' E 122°03'0 0.0
2016-Dec-23 23:27N 29°53' E 122°03'0 0.0
2016-Dec-23 21:33N 29°53' E 122°03'6 6.4
2016-Dec-23 20:33N 29°54' E 122°10'1211.4
2016-Dec-23 19:32N 29°45' E 122°19'6 6.3
2016-Dec-23 18:30N 29°42' E 122°25'3 0.2
2016-Dec-23 02:21N 29°39' E 122°25'  
Track history (hours):
 
Tides and Currents Weather Stations Pressure Air Temp Water Temp Dewpoint Dewpoint Depression Visibility Wind Speed Wind Dir Waves Ship Positions

Buxhansa

Last reported at 2017-Jan-01 16:28 UTC. Time now 2017-Jan-17 21:23 UTC.
Position N 01°53' E 102°27'.
Warning: this ship's position is 16 days out of date.

Length 208 m; draft 11.1 m.

Type: Ship. MMSI: 636091849.

Date/timePositionNaut miles runAvg speedWind from/ knotsBaromVisibWave heightAir tempDewpointWater temp
2017-Jan-01 16:28N 01°53' E 102°27'8414.1
2017-Jan-01 10:30N 01°14' E 103°41'5 4.9
2017-Jan-01 09:31N 01°17' E 103°45'0 0.0
2017-Jan-01 05:20N 01°17' E 103°45'0 0.0
2017-Jan-01 04:19N 01°17' E 103°45'0 0.0
2017-Jan-01 00:30N 01°17' E 103°45'0 0.0
2016-Dec-31 23:26N 01°17' E 103°45'0 0.0
2016-Dec-31 22:29N 01°17' E 103°45'0 0.0
2016-Dec-31 17:21N 01°17' E 103°45'0 0.0
2016-Dec-31 16:26N 01°17' E 103°45'0 0.0
2016-Dec-31 15:32N 01°17' E 103°45'0 0.0
2016-Dec-31 14:31N 01°17' E 103°45'2 1.5
2016-Dec-31 13:33N 01°15' E 103°46'8 7.7
2016-Dec-31 12:32N 01°14' E 103°54'  
2016-Dec-24 15:32N 29°24' E 122°30'1514.9
2016-Dec-24 14:31N 29°39' E 122°25'1212.1
2016-Dec-24 13:33N 29°47' E 122°16'1211.5
2016-Dec-24 12:32N 29°55' E 122°06'3 1.6
2016-Dec-24 10:31N 29°53' E 122°03'0 0.0
2016-Dec-24 09:10N 29°53' E 122°03'0 0.0
2016-Dec-24 08:33N 29°53' E 122°03'0 0.0
2016-Dec-24 07:09N 29°53' E 122°03'0 0.0
2016-Dec-24 06:30N 29°53' E 122°03'0 0.0
2016-Dec-24 05:26N 29°53' E 122°03'0 0.0
2016-Dec-24 04:13N 29°53' E 122°03'0 0.0
2016-Dec-24 03:27N 29°53' E 122°03'0 0.0
2016-Dec-24 02:29N 29°53' E 122°03'0 0.0
2016-Dec-24 01:19N 29°53' E 122°03'0 0.0
2016-Dec-24 00:12N 29°53' E 122°03'0 0.0
2016-Dec-23 23:27N 29°53' E 122°03'0 0.0
2016-Dec-23 21:33N 29°53' E 122°03'6 6.4
2016-Dec-23 20:33N 29°54' E 122°10'1211.4
2016-Dec-23 19:32N 29°45' E 122°19'6 6.3
2016-Dec-23 18:30N 29°42' E 122°25'3 0.2
2016-Dec-23 02:21N 29°39' E 122°25'  

Dump ship's entire track history